createdAt,value
2022-07-26T00:01:31.726Z,27.97
2022-07-26T00:06:38.802Z,27.94
2022-07-26T00:11:46.223Z,27.91
2022-07-26T00:16:58.426Z,27.88
2022-07-26T00:22:40.186Z,27.85
2022-07-26T00:27:52.014Z,27.84
2022-07-26T00:32:54.439Z,27.83
2022-07-26T00:37:56.537Z,27.82
2022-07-26T00:43:02.274Z,27.82
2022-07-26T00:48:06.905Z,27.79
2022-07-26T00:53:13.049Z,27.79
2022-07-26T00:58:27.361Z,27.78
2022-07-26T01:03:36.564Z,27.74
2022-07-26T01:08:47.035Z,27.67
2022-07-26T01:13:54.876Z,27.61
2022-07-26T01:22:20.637Z,27.45
2022-07-26T01:27:23.226Z,27.43
2022-07-26T01:32:34.662Z,27.42
2022-07-26T01:37:38.048Z,27.36
2022-07-26T01:42:41.568Z,27.32
2022-07-26T01:47:50.550Z,27.27
2022-07-26T01:52:56.442Z,27.22
2022-07-26T01:58:00.708Z,27.21
2022-07-26T02:03:07.528Z,27.18
2022-07-26T02:08:16.487Z,27.17
2022-07-26T02:13:22.683Z,27.15
2022-07-26T02:18:28.961Z,27.17
2022-07-26T02:23:46.123Z,27.17
2022-07-26T02:28:49.494Z,27.18
2022-07-26T02:33:58.284Z,27.20
2022-07-26T02:39:07.577Z,27.20
2022-07-26T02:44:12.852Z,27.18
2022-07-26T02:49:17.567Z,27.16
2022-07-26T02:54:22.340Z,27.12
2022-07-26T03:05:04.692Z,27.05
2022-07-26T03:10:08.706Z,27.04
2022-07-26T03:15:14.346Z,27.02
2022-07-26T03:20:16.901Z,26.99
2022-07-26T03:25:23.724Z,26.98
2022-07-26T03:30:26.994Z,26.98
2022-07-26T03:35:36.608Z,26.96
2022-07-26T03:40:40.617Z,26.95
2022-07-26T03:45:44.484Z,26.94
2022-07-26T03:50:47.918Z,26.95
2022-07-26T03:56:14.722Z,26.95
2022-07-26T04:01:23.115Z,26.95
2022-07-26T04:06:32.956Z,26.96
2022-07-26T04:11:40.279Z,26.96
2022-07-26T04:16:51.557Z,26.98
2022-07-26T04:21:56.907Z,27.01
2022-07-26T04:27:01.527Z,27.01
2022-07-26T04:32:09.078Z,27.03
2022-07-26T04:37:12.664Z,27.04
2022-07-26T04:42:14.753Z,27.04
2022-07-26T04:47:19.411Z,27.04
2022-07-26T04:52:21.525Z,27.01
2022-07-26T04:57:24.941Z,27.01
2022-07-26T05:02:31.893Z,27.05
2022-07-26T05:07:44.101Z,27.03
2022-07-26T05:12:48.059Z,27.04
2022-07-26T05:17:53.127Z,27.04
2022-07-26T05:23:21.682Z,27.03
2022-07-26T05:28:26.708Z,27.05
2022-07-26T05:33:53.546Z,27.06
2022-07-26T05:38:57.532Z,27.09
2022-07-26T05:44:02.104Z,27.11
2022-07-26T05:49:06.433Z,27.12
2022-07-26T05:54:15.016Z,27.13
2022-07-26T05:59:24.226Z,27.14
2022-07-26T06:04:38.959Z,27.20
2022-07-26T06:09:43.950Z,27.21
2022-07-26T06:14:48.090Z,27.21
2022-07-26T06:19:54.461Z,27.20
2022-07-26T06:25:01.323Z,27.21
2022-07-26T06:30:13.017Z,27.17
2022-07-26T06:35:24.391Z,27.15
2022-07-26T06:40:28.141Z,27.16
2022-07-26T06:45:44.792Z,27.15
2022-07-26T06:51:12.556Z,27.20
2022-07-26T06:56:18.591Z,27.31
2022-07-26T07:01:58.209Z,27.40
2022-07-26T07:06:47.099Z,27.52
2022-07-26T07:11:58.930Z,27.66
2022-07-26T07:17:11.174Z,27.76
2022-07-26T07:22:20.701Z,27.85
2022-07-26T07:27:27.796Z,27.95
2022-07-26T07:32:37.285Z,28.11
2022-07-26T07:37:53.614Z,28.21
2022-07-26T07:43:00.514Z,28.36
2022-07-26T07:48:06.162Z,28.44
2022-07-26T07:53:15.563Z,28.44
2022-07-26T07:58:27.945Z,28.59
2022-07-26T08:03:50.594Z,28.58
2022-07-26T08:09:03.917Z,28.68
2022-07-26T08:14:11.536Z,28.73
2022-07-26T08:19:17.221Z,28.90
2022-07-26T08:24:22.746Z,29.04
2022-07-26T08:29:24.774Z,29.15
2022-07-26T08:34:27.514Z,29.23
2022-07-26T08:39:29.932Z,29.42
2022-07-26T08:44:37.954Z,29.66
2022-07-26T08:49:41.881Z,29.91
2022-07-26T08:54:49.790Z,29.84
2022-07-26T09:00:26.909Z,29.74
2022-07-26T09:05:40.708Z,29.70
2022-07-26T09:10:43.912Z,29.72
2022-07-26T09:16:13.355Z,29.91
2022-07-26T09:21:39.669Z,29.91
2022-07-26T09:26:57.770Z,29.98
2022-07-26T09:32:28.959Z,30.17
2022-07-26T09:37:48.182Z,30.12
2022-07-26T09:43:07.731Z,30.06
2022-07-26T09:48:52.255Z,30.10
2022-07-26T09:54:00.954Z,30.27
2022-07-26T09:59:06.523Z,30.53
2022-07-26T10:04:11.695Z,30.71
2022-07-26T10:09:26.344Z,30.81
2022-07-26T10:14:52.724Z,30.76
2022-07-26T10:19:58.363Z,30.81
2022-07-26T10:25:20.495Z,30.66
2022-07-26T10:30:35.391Z,30.70
2022-07-26T10:35:47.671Z,30.74
2022-07-26T10:41:04.791Z,30.78
2022-07-26T10:46:32.889Z,30.78
2022-07-26T10:51:42.334Z,30.68
2022-07-26T10:56:45.891Z,30.51
2022-07-26T11:01:51.029Z,30.36
2022-07-26T11:06:53.734Z,30.14
2022-07-26T11:12:18.536Z,30.16
2022-07-26T11:17:30.192Z,30.17
2022-07-26T11:22:33.532Z,30.03
2022-07-26T11:27:35.998Z,29.97
2022-07-26T11:32:39.588Z,30.06
2022-07-26T11:38:09.473Z,29.80
2022-07-26T11:43:15.235Z,29.71
2022-07-26T11:48:30.115Z,29.54
2022-07-26T11:53:55.412Z,29.35
2022-07-26T11:59:01.215Z,29.17
2022-07-26T12:04:03.507Z,29.20
2022-07-26T12:09:08.220Z,29.17
2022-07-26T12:14:15.076Z,29.15
2022-07-26T12:19:26.641Z,29.08
2022-07-26T12:24:40.821Z,28.99
2022-07-26T12:29:47.977Z,28.89
2022-07-26T12:35:27.210Z,28.86
2022-07-26T12:40:40.523Z,28.88
2022-07-26T12:45:44.846Z,28.98
2022-07-26T12:51:01.125Z,28.99
2022-07-26T12:56:06.107Z,29.04
2022-07-26T13:01:15.648Z,29.12
2022-07-26T13:06:18.875Z,29.11
2022-07-26T13:11:24.377Z,29.03
2022-07-26T13:16:28.829Z,28.97
2022-07-26T13:21:33.560Z,28.99
2022-07-26T13:26:37.353Z,29.01
2022-07-26T13:31:41.339Z,29.03
2022-07-26T13:36:44.577Z,28.90
2022-07-26T13:41:55.951Z,28.84
2022-07-26T13:46:59.432Z,28.85
2022-07-26T13:52:13.606Z,28.76
2022-07-26T13:57:18.373Z,28.80
2022-07-26T14:02:23.448Z,28.82
2022-07-26T14:07:30.298Z,28.85
2022-07-26T14:12:33.872Z,28.74
2022-07-26T14:17:39.372Z,28.76
2022-07-26T14:22:44.529Z,28.74
2022-07-26T14:27:49.994Z,28.66
2022-07-26T14:32:59.132Z,28.61
2022-07-26T14:38:04.621Z,28.62
2022-07-26T14:43:08.087Z,28.59
2022-07-26T14:48:11.924Z,28.57
2022-07-26T14:53:30.885Z,28.63
2022-07-26T14:58:38.473Z,28.55
2022-07-26T15:03:42.054Z,28.48
2022-07-26T15:08:46.219Z,28.51
2022-07-26T15:19:09.695Z,28.40
2022-07-26T15:24:18.107Z,28.36
2022-07-26T15:29:24.157Z,28.37
2022-07-26T15:34:35.114Z,28.39
2022-07-26T15:39:40.333Z,28.44
2022-07-26T15:44:44.228Z,28.40
2022-07-26T15:49:48.802Z,28.34
2022-07-26T15:54:53.391Z,28.38
2022-07-26T15:59:56.400Z,28.40
2022-07-26T16:04:59.611Z,28.39
2022-07-26T16:10:01.916Z,28.41
2022-07-26T16:15:11.058Z,28.43
2022-07-26T16:20:19.624Z,28.49
2022-07-26T16:25:25.665Z,28.57
2022-07-26T16:30:30.166Z,28.69
2022-07-26T16:35:38.435Z,28.74
2022-07-26T16:40:54.677Z,28.69
2022-07-26T16:45:58.205Z,28.68
2022-07-26T16:51:00.661Z,28.58
2022-07-26T16:56:05.025Z,28.57
2022-07-26T17:01:09.428Z,28.57
2022-07-26T17:06:17.648Z,28.50
2022-07-26T17:11:22.347Z,28.43
2022-07-26T17:16:25.203Z,28.38
2022-07-26T17:21:27.828Z,28.36
2022-07-26T17:26:31.803Z,28.29
2022-07-26T17:31:40.157Z,28.29
2022-07-26T17:36:43.478Z,28.30
2022-07-26T17:41:58.882Z,28.32
2022-07-26T17:47:03.724Z,28.30
2022-07-26T17:52:29.260Z,28.32
2022-07-26T17:57:36.369Z,28.23
2022-07-26T18:02:40.882Z,28.25
2022-07-26T18:07:49.060Z,28.26
2022-07-26T18:12:51.254Z,28.17
2022-07-26T18:17:57.020Z,28.06
2022-07-26T18:23:00.753Z,28.07
2022-07-26T18:28:15.618Z,28.06
2022-07-26T18:33:35.113Z,28.00
2022-07-26T18:38:49.658Z,27.98
2022-07-26T18:43:54.258Z,27.88
2022-07-26T18:48:59.078Z,27.87
2022-07-26T18:54:08.505Z,27.86
2022-07-26T18:59:17.663Z,27.82
2022-07-26T19:04:21.697Z,27.74
2022-07-26T19:09:28.834Z,27.71
2022-07-26T19:14:35.151Z,27.72
2022-07-26T19:19:53.306Z,27.69
2022-07-26T19:25:00.411Z,27.66
2022-07-26T19:30:03.057Z,27.66
2022-07-26T19:35:27.176Z,27.65
2022-07-26T19:40:31.870Z,27.64
2022-07-26T19:45:35.353Z,27.65
2022-07-26T19:50:39.834Z,27.64
2022-07-26T19:55:42.715Z,27.72
2022-07-26T20:00:54.136Z,27.74
2022-07-26T20:11:22.802Z,27.72
2022-07-26T20:16:24.902Z,27.69
2022-07-26T20:21:27.248Z,27.72
2022-07-26T20:26:35.013Z,27.70
2022-07-26T20:31:44.936Z,27.69
2022-07-26T20:36:47.981Z,27.64
2022-07-26T20:42:14.868Z,27.63
2022-07-26T20:47:27.481Z,27.57
2022-07-26T20:52:33.300Z,27.54
2022-07-26T20:57:38.692Z,27.56
2022-07-26T21:02:43.217Z,27.57
2022-07-26T21:07:57.352Z,27.60
2022-07-26T21:13:06.872Z,27.56
2022-07-26T21:18:12.343Z,27.50
2022-07-26T21:23:18.488Z,27.47
2022-07-26T21:28:23.706Z,27.47
2022-07-26T21:33:29.081Z,27.48
2022-07-26T21:38:36.738Z,27.50
2022-07-26T21:43:40.297Z,27.51
2022-07-26T21:48:49.269Z,27.50
2022-07-26T21:53:52.479Z,27.50
2022-07-26T21:58:57.197Z,27.49
2022-07-26T22:04:00.317Z,27.50
2022-07-26T22:09:08.292Z,27.49
2022-07-26T22:14:17.557Z,27.49
2022-07-26T22:19:20.983Z,27.49
2022-07-26T22:24:25.533Z,27.44
2022-07-26T22:29:38.919Z,27.47
2022-07-26T22:34:44.922Z,27.48
2022-07-26T22:39:51.263Z,27.49
2022-07-26T22:44:58.036Z,27.47
2022-07-26T22:50:09.934Z,27.46
2022-07-26T22:55:14.487Z,27.44
2022-07-26T23:00:22.372Z,27.42
2022-07-26T23:10:50.513Z,27.44
2022-07-26T23:15:59.642Z,27.45
2022-07-26T23:21:03.882Z,27.47
2022-07-26T23:26:12.976Z,27.48
2022-07-26T23:31:51.006Z,27.46
2022-07-26T23:36:58.070Z,27.48
2022-07-26T23:42:05.354Z,27.43
2022-07-26T23:47:08.552Z,27.37
2022-07-26T23:52:17.098Z,27.35
2022-07-26T23:57:19.086Z,27.41
